sensor_id;sensor_type;location;lat;lon;timestamp;temperature;humidity
5196;DHT22;2617;51.006;12.436;2023-07-29T00:03:25;18.90;99.90
5196;DHT22;2617;51.006;12.436;2023-07-29T00:08:28;18.90;99.90
5196;DHT22;2617;51.006;12.436;2023-07-29T00:13:30;18.90;99.90
5196;DHT22;2617;51.006;12.436;2023-07-29T00:18:33;18.90;99.90
5196;DHT22;2617;51.006;12.436;2023-07-29T00:23:35;19.00;99.90
5196;DHT22;2617;51.006;12.436;2023-07-29T00:28:37;18.90;99.90
5196;DHT22;2617;51.006;12.436;2023-07-29T00:33:40;19.00;99.90
5196;DHT22;2617;51.006;12.436;2023-07-29T00:38:42;18.90;99.90
5196;DHT22;2617;51.006;12.436;2023-07-29T00:43:45;18.90;99.90
5196;DHT22;2617;51.006;12.436;2023-07-29T00:48:47;18.80;99.90
5196;DHT22;2617;51.006;12.436;2023-07-29T00:53:50;18.70;99.90
5196;DHT22;2617;51.006;12.436;2023-07-29T00:58:53;18.70;99.90
5196;DHT22;2617;51.006;12.436;2023-07-29T01:03:56;18.60;99.90
5196;DHT22;2617;51.006;12.436;2023-07-29T01:09:03;18.60;99.90
5196;DHT22;2617;51.006;12.436;2023-07-29T01:14:33;18.50;99.90
5196;DHT22;2617;51.006;12.436;2023-07-29T01:19:42;18.50;99.90
5196;DHT22;2617;51.006;12.436;2023-07-29T01:24:45;18.50;99.90
5196;DHT22;2617;51.006;12.436;2023-07-29T01:29:48;18.50;99.90
5196;DHT22;2617;51.006;12.436;2023-07-29T01:34:53;18.50;99.90
5196;DHT22;2617;51.006;12.436;2023-07-29T01:39:54;18.40;99.90
5196;DHT22;2617;51.006;12.436;2023-07-29T01:44:56;18.30;99.90
5196;DHT22;2617;51.006;12.436;2023-07-29T01:49:58;18.30;99.90
5196;DHT22;2617;51.006;12.436;2023-07-29T01:55:02;18.40;99.90
5196;DHT22;2617;51.006;12.436;2023-07-29T02:00:05;18.40;99.90
5196;DHT22;2617;51.006;12.436;2023-07-29T02:05:10;18.40;99.90
5196;DHT22;2617;51.006;12.436;2023-07-29T02:10:12;18.40;99.90
5196;DHT22;2617;51.006;12.436;2023-07-29T02:15:15;18.40;99.90
5196;DHT22;2617;51.006;12.436;2023-07-29T02:20:17;18.40;99.90
5196;DHT22;2617;51.006;12.436;2023-07-29T02:25:20;18.40;99.90
5196;DHT22;2617;51.006;12.436;2023-07-29T02:30:22;18.30;99.90
5196;DHT22;2617;51.006;12.436;2023-07-29T02:35:25;18.30;99.90
5196;DHT22;2617;51.006;12.436;2023-07-29T02:40:27;18.30;99.90
5196;DHT22;2617;51.006;12.436;2023-07-29T02:45:29;18.30;99.90
5196;DHT22;2617;51.006;12.436;2023-07-29T02:50:34;18.20;99.90
5196;DHT22;2617;51.006;12.436;2023-07-29T02:55:35;18.10;99.90
5196;DHT22;2617;51.006;12.436;2023-07-29T03:00:37;18.10;99.90
5196;DHT22;2617;51.006;12.436;2023-07-29T03:05:40;18.00;99.90
5196;DHT22;2617;51.006;12.436;2023-07-29T03:10:42;17.90;99.90
5196;DHT22;2617;51.006;12.436;2023-07-29T03:15:45;17.90;99.90
5196;DHT22;2617;51.006;12.436;2023-07-29T03:20:48;17.90;99.90
5196;DHT22;2617;51.006;12.436;2023-07-29T03:25:50;17.90;99.90
5196;DHT22;2617;51.006;12.436;2023-07-29T03:30:55;17.90;99.90
5196;DHT22;2617;51.006;12.436;2023-07-29T03:35:57;18.00;99.90
5196;DHT22;2617;51.006;12.436;2023-07-29T03:41:00;18.10;99.90
5196;DHT22;2617;51.006;12.436;2023-07-29T03:46:02;18.20;99.90
5196;DHT22;2617;51.006;12.436;2023-07-29T03:51:05;18.20;99.90
5196;DHT22;2617;51.006;12.436;2023-07-29T03:56:07;18.20;99.90
5196;DHT22;2617;51.006;12.436;2023-07-29T04:01:10;18.10;99.90
5196;DHT22;2617;51.006;12.436;2023-07-29T04:06:13;18.20;99.90
5196;DHT22;2617;51.006;12.436;2023-07-29T04:11:16;18.30;99.90
5196;DHT22;2617;51.006;12.436;2023-07-29T04:16:18;18.20;99.90
5196;DHT22;2617;51.006;12.436;2023-07-29T04:21:21;18.40;99.90
5196;DHT22;2617;51.006;12.436;2023-07-29T04:26:23;18.40;99.90
5196;DHT22;2617;51.006;12.436;2023-07-29T04:31:26;18.50;99.90
5196;DHT22;2617;51.006;12.436;2023-07-29T04:36:28;18.60;99.90
5196;DHT22;2617;51.006;12.436;2023-07-29T04:41:30;18.70;99.90
5196;DHT22;2617;51.006;12.436;2023-07-29T04:46:33;18.80;99.90
5196;DHT22;2617;51.006;12.436;2023-07-29T04:51:35;19.00;99.90
5196;DHT22;2617;51.006;12.436;2023-07-29T04:56:38;19.20;99.90
5196;DHT22;2617;51.006;12.436;2023-07-29T05:01:40;19.50;99.90
5196;DHT22;2617;51.006;12.436;2023-07-29T05:06:43;22.00;99.90
5196;DHT22;2617;51.006;12.436;2023-07-29T05:11:46;25.30;99.90
5196;DHT22;2617;51.006;12.436;2023-07-29T05:16:48;27.50;99.90
5196;DHT22;2617;51.006;12.436;2023-07-29T05:21:51;28.40;97.10
5196;DHT22;2617;51.006;12.436;2023-07-29T05:26:53;28.60;96.30
5196;DHT22;2617;51.006;12.436;2023-07-29T05:31:55;28.30;96.30
5196;DHT22;2617;51.006;12.436;2023-07-29T05:36:58;27.30;97.90
5196;DHT22;2617;51.006;12.436;2023-07-29T05:42:00;25.00;99.90
5196;DHT22;2617;51.006;12.436;2023-07-29T05:47:04;23.30;99.90
5196;DHT22;2617;51.006;12.436;2023-07-29T05:52:06;22.50;99.90
5196;DHT22;2617;51.006;12.436;2023-07-29T05:57:09;22.00;99.90
5196;DHT22;2617;51.006;12.436;2023-07-29T06:02:13;21.70;99.90
5196;DHT22;2617;51.006;12.436;2023-07-29T06:07:15;21.70;99.90
5196;DHT22;2617;51.006;12.436;2023-07-29T06:12:17;22.10;99.90
5196;DHT22;2617;51.006;12.436;2023-07-29T06:17:20;22.50;99.90
5196;DHT22;2617;51.006;12.436;2023-07-29T06:22:22;22.80;99.90
5196;DHT22;2617;51.006;12.436;2023-07-29T06:27:25;22.80;99.90
5196;DHT22;2617;51.006;12.436;2023-07-29T06:32:27;22.60;99.90
5196;DHT22;2617;51.006;12.436;2023-07-29T06:37:29;22.80;99.90
5196;DHT22;2617;51.006;12.436;2023-07-29T06:42:32;23.20;99.90
5196;DHT22;2617;51.006;12.436;2023-07-29T06:47:34;23.40;99.90
5196;DHT22;2617;51.006;12.436;2023-07-29T06:52:37;23.40;99.90
5196;DHT22;2617;51.006;12.436;2023-07-29T06:57:39;23.20;99.90
5196;DHT22;2617;51.006;12.436;2023-07-29T07:02:42;23.20;99.90
5196;DHT22;2617;51.006;12.436;2023-07-29T07:07:45;23.60;99.90
5196;DHT22;2617;51.006;12.436;2023-07-29T07:12:47;24.00;99.90
5196;DHT22;2617;51.006;12.436;2023-07-29T07:17:50;24.50;99.90
5196;DHT22;2617;51.006;12.436;2023-07-29T07:22:52;24.80;99.90
5196;DHT22;2617;51.006;12.436;2023-07-29T07:27:54;24.70;99.90
5196;DHT22;2617;51.006;12.436;2023-07-29T07:32:57;24.60;99.90
5196;DHT22;2617;51.006;12.436;2023-07-29T07:37:59;24.30;99.90
5196;DHT22;2617;51.006;12.436;2023-07-29T07:43:02;24.10;99.90
5196;DHT22;2617;51.006;12.436;2023-07-29T07:48:04;24.00;99.90
5196;DHT22;2617;51.006;12.436;2023-07-29T07:53:07;23.90;99.90
5196;DHT22;2617;51.006;12.436;2023-07-29T07:58:09;23.90;99.90
5196;DHT22;2617;51.006;12.436;2023-07-29T08:03:11;24.00;99.90
5196;DHT22;2617;51.006;12.436;2023-07-29T08:08:15;24.10;99.90
5196;DHT22;2617;51.006;12.436;2023-07-29T08:13:17;24.20;99.90
5196;DHT22;2617;51.006;12.436;2023-07-29T08:18:20;24.20;99.90
5196;DHT22;2617;51.006;12.436;2023-07-29T08:23:24;24.60;99.90
5196;DHT22;2617;51.006;12.436;2023-07-29T08:28:30;24.60;99.90
5196;DHT22;2617;51.006;12.436;2023-07-29T08:33:31;25.30;99.90
5196;DHT22;2617;51.006;12.436;2023-07-29T08:38:35;25.40;99.90
5196;DHT22;2617;51.006;12.436;2023-07-29T08:43:38;25.40;99.90
5196;DHT22;2617;51.006;12.436;2023-07-29T08:48:40;25.20;99.90
5196;DHT22;2617;51.006;12.436;2023-07-29T08:53:42;25.20;99.90
5196;DHT22;2617;51.006;12.436;2023-07-29T08:58:46;25.30;99.90
5196;DHT22;2617;51.006;12.436;2023-07-29T09:03:49;25.10;99.90
5196;DHT22;2617;51.006;12.436;2023-07-29T09:08:51;25.10;99.90
5196;DHT22;2617;51.006;12.436;2023-07-29T09:13:54;25.10;99.90
5196;DHT22;2617;51.006;12.436;2023-07-29T09:18:56;25.00;99.90
5196;DHT22;2617;51.006;12.436;2023-07-29T09:24:02;24.90;99.90
5196;DHT22;2617;51.006;12.436;2023-07-29T09:29:01;25.00;99.90
5196;DHT22;2617;51.006;12.436;2023-07-29T09:34:04;24.80;99.90
5196;DHT22;2617;51.006;12.436;2023-07-29T09:39:10;24.60;99.90
5196;DHT22;2617;51.006;12.436;2023-07-29T09:44:10;24.30;99.90
5196;DHT22;2617;51.006;12.436;2023-07-29T09:49:11;24.10;99.90
5196;DHT22;2617;51.006;12.436;2023-07-29T09:54:13;24.10;99.90
5196;DHT22;2617;51.006;12.436;2023-07-29T09:59:18;24.10;99.90
5196;DHT22;2617;51.006;12.436;2023-07-29T10:04:19;24.20;99.90
5196;DHT22;2617;51.006;12.436;2023-07-29T10:09:21;24.30;99.90
5196;DHT22;2617;51.006;12.436;2023-07-29T10:14:24;24.40;99.90
5196;DHT22;2617;51.006;12.436;2023-07-29T10:19:26;24.60;99.90
5196;DHT22;2617;51.006;12.436;2023-07-29T10:24:30;24.80;99.90
5196;DHT22;2617;51.006;12.436;2023-07-29T10:29:32;24.90;99.90
5196;DHT22;2617;51.006;12.436;2023-07-29T10:34:34;25.20;99.90
5196;DHT22;2617;51.006;12.436;2023-07-29T10:39:39;25.10;99.90
5196;DHT22;2617;51.006;12.436;2023-07-29T10:44:50;25.00;99.90
5196;DHT22;2617;51.006;12.436;2023-07-29T10:49:54;24.90;99.90
5196;DHT22;2617;51.006;12.436;2023-07-29T10:54:56;24.70;99.90
5196;DHT22;2617;51.006;12.436;2023-07-29T10:59:59;24.40;99.90
5196;DHT22;2617;51.006;12.436;2023-07-29T11:05:08;24.30;99.90
5196;DHT22;2617;51.006;12.436;2023-07-29T11:10:11;24.20;99.90
5196;DHT22;2617;51.006;12.436;2023-07-29T11:15:17;24.30;99.90
5196;DHT22;2617;51.006;12.436;2023-07-29T11:20:19;24.30;99.90
5196;DHT22;2617;51.006;12.436;2023-07-29T11:25:21;24.30;99.90
5196;DHT22;2617;51.006;12.436;2023-07-29T11:30:23;24.40;99.90
5196;DHT22;2617;51.006;12.436;2023-07-29T11:35:27;24.60;99.90
5196;DHT22;2617;51.006;12.436;2023-07-29T11:40:29;24.60;99.90
5196;DHT22;2617;51.006;12.436;2023-07-29T11:45:33;24.60;99.90
5196;DHT22;2617;51.006;12.436;2023-07-29T11:50:34;24.60;99.90
5196;DHT22;2617;51.006;12.436;2023-07-29T11:55:37;24.80;99.90
5196;DHT22;2617;51.006;12.436;2023-07-29T12:00:39;24.80;99.90
5196;DHT22;2617;51.006;12.436;2023-07-29T12:05:42;25.10;99.90
5196;DHT22;2617;51.006;12.436;2023-07-29T12:10:45;24.90;99.90
5196;DHT22;2617;51.006;12.436;2023-07-29T12:15:48;25.00;99.90
5196;DHT22;2617;51.006;12.436;2023-07-29T12:20:50;24.60;99.90
5196;DHT22;2617;51.006;12.436;2023-07-29T12:25:56;25.20;99.90
5196;DHT22;2617;51.006;12.436;2023-07-29T12:30:59;26.30;99.90
5196;DHT22;2617;51.006;12.436;2023-07-29T12:36:02;26.80;99.40
5196;DHT22;2617;51.006;12.436;2023-07-29T12:41:04;26.80;99.40
5196;DHT22;2617;51.006;12.436;2023-07-29T12:46:07;27.30;97.60
5196;DHT22;2617;51.006;12.436;2023-07-29T12:51:09;27.30;97.00
5196;DHT22;2617;51.006;12.436;2023-07-29T12:56:12;27.40;97.00
5196;DHT22;2617;51.006;12.436;2023-07-29T13:01:14;27.50;96.10
5196;DHT22;2617;51.006;12.436;2023-07-29T13:06:19;27.40;95.40
5196;DHT22;2617;51.006;12.436;2023-07-29T13:11:22;27.60;95.70
5196;DHT22;2617;51.006;12.436;2023-07-29T13:16:24;27.40;95.30
5196;DHT22;2617;51.006;12.436;2023-07-29T13:21:26;27.10;96.50
5196;DHT22;2617;51.006;12.436;2023-07-29T13:26:29;26.90;96.90
5196;DHT22;2617;51.006;12.436;2023-07-29T13:31:31;27.50;94.70
5196;DHT22;2617;51.006;12.436;2023-07-29T13:36:34;28.10;93.40
5196;DHT22;2617;51.006;12.436;2023-07-29T13:41:37;28.10;93.40
5196;DHT22;2617;51.006;12.436;2023-07-29T13:46:39;28.10;92.60
5196;DHT22;2617;51.006;12.436;2023-07-29T13:51:42;28.30;92.20
5196;DHT22;2617;51.006;12.436;2023-07-29T13:56:45;28.20;92.20
5196;DHT22;2617;51.006;12.436;2023-07-29T14:01:48;28.10;90.70
5196;DHT22;2617;51.006;12.436;2023-07-29T14:06:50;28.30;91.30
5196;DHT22;2617;51.006;12.436;2023-07-29T14:11:54;28.60;90.70
5196;DHT22;2617;51.006;12.436;2023-07-29T14:16:56;28.70;90.50
5196;DHT22;2617;51.006;12.436;2023-07-29T14:21:58;28.70;89.10
5196;DHT22;2617;51.006;12.436;2023-07-29T14:27:00;28.60;89.60
5196;DHT22;2617;51.006;12.436;2023-07-29T14:32:03;28.50;89.80
5196;DHT22;2617;51.006;12.436;2023-07-29T14:37:06;28.00;90.20
5196;DHT22;2617;51.006;12.436;2023-07-29T14:42:08;27.70;90.40
5196;DHT22;2617;51.006;12.436;2023-07-29T14:47:11;27.40;90.10
5196;DHT22;2617;51.006;12.436;2023-07-29T14:52:13;27.10;91.30
5196;DHT22;2617;51.006;12.436;2023-07-29T14:57:16;26.90;91.80
5196;DHT22;2617;51.006;12.436;2023-07-29T15:02:18;26.70;92.30
5196;DHT22;2617;51.006;12.436;2023-07-29T15:07:21;26.40;92.20
5196;DHT22;2617;51.006;12.436;2023-07-29T15:12:23;26.00;91.80
5196;DHT22;2617;51.006;12.436;2023-07-29T15:17:26;25.70;92.40
5196;DHT22;2617;51.006;12.436;2023-07-29T15:22:29;25.40;94.90
5196;DHT22;2617;51.006;12.436;2023-07-29T15:27:31;22.90;99.90
5196;DHT22;2617;51.006;12.436;2023-07-29T15:32:34;20.00;99.90
5196;DHT22;2617;51.006;12.436;2023-07-29T15:37:36;18.70;99.90
5196;DHT22;2617;51.006;12.436;2023-07-29T15:42:39;18.30;99.90
5196;DHT22;2617;51.006;12.436;2023-07-29T15:47:41;18.60;99.90
5196;DHT22;2617;51.006;12.436;2023-07-29T15:52:43;18.80;99.90
5196;DHT22;2617;51.006;12.436;2023-07-29T15:57:46;19.10;99.90
5196;DHT22;2617;51.006;12.436;2023-07-29T16:02:48;19.30;99.90
5196;DHT22;2617;51.006;12.436;2023-07-29T16:07:51;19.70;99.90
5196;DHT22;2617;51.006;12.436;2023-07-29T16:12:54;19.70;99.90
5196;DHT22;2617;51.006;12.436;2023-07-29T16:17:56;19.70;99.90
5196;DHT22;2617;51.006;12.436;2023-07-29T16:23:00;19.80;99.90
5196;DHT22;2617;51.006;12.436;2023-07-29T16:28:02;19.80;99.90
5196;DHT22;2617;51.006;12.436;2023-07-29T16:33:05;20.10;99.90
5196;DHT22;2617;51.006;12.436;2023-07-29T16:38:08;20.10;99.90
5196;DHT22;2617;51.006;12.436;2023-07-29T16:43:10;20.30;99.90
5196;DHT22;2617;51.006;12.436;2023-07-29T16:48:12;20.60;99.90
5196;DHT22;2617;51.006;12.436;2023-07-29T16:53:16;21.60;99.90
5196;DHT22;2617;51.006;12.436;2023-07-29T16:58:18;21.60;99.90
5196;DHT22;2617;51.006;12.436;2023-07-29T17:03:21;21.70;99.90
5196;DHT22;2617;51.006;12.436;2023-07-29T17:08:24;21.40;99.90
5196;DHT22;2617;51.006;12.436;2023-07-29T17:13:27;21.30;99.90
5196;DHT22;2617;51.006;12.436;2023-07-29T17:18:30;21.10;99.90
5196;DHT22;2617;51.006;12.436;2023-07-29T17:23:32;21.10;99.90
5196;DHT22;2617;51.006;12.436;2023-07-29T17:28:35;21.00;99.90
5196;DHT22;2617;51.006;12.436;2023-07-29T17:33:37;20.90;99.90
5196;DHT22;2617;51.006;12.436;2023-07-29T17:38:40;20.80;99.90
5196;DHT22;2617;51.006;12.436;2023-07-29T17:43:43;20.80;99.90
5196;DHT22;2617;51.006;12.436;2023-07-29T17:48:46;20.70;99.90
5196;DHT22;2617;51.006;12.436;2023-07-29T17:53:48;20.70;99.90
5196;DHT22;2617;51.006;12.436;2023-07-29T17:58:52;20.70;99.90
5196;DHT22;2617;51.006;12.436;2023-07-29T18:03:54;20.30;99.90
5196;DHT22;2617;51.006;12.436;2023-07-29T18:08:57;19.90;99.90
5196;DHT22;2617;51.006;12.436;2023-07-29T18:13:59;19.60;99.90
5196;DHT22;2617;51.006;12.436;2023-07-29T18:19:02;19.00;99.90
5196;DHT22;2617;51.006;12.436;2023-07-29T18:24:05;19.00;99.90
5196;DHT22;2617;51.006;12.436;2023-07-29T18:29:08;18.70;99.90
5196;DHT22;2617;51.006;12.436;2023-07-29T18:34:10;18.70;99.90
5196;DHT22;2617;51.006;12.436;2023-07-29T18:39:13;18.60;99.90
5196;DHT22;2617;51.006;12.436;2023-07-29T18:44:15;18.60;99.90
5196;DHT22;2617;51.006;12.436;2023-07-29T18:49:18;18.50;99.90
5196;DHT22;2617;51.006;12.436;2023-07-29T18:54:20;18.40;99.90
5196;DHT22;2617;51.006;12.436;2023-07-29T18:59:23;18.20;99.90
5196;DHT22;2617;51.006;12.436;2023-07-29T19:04:26;18.10;99.90
5196;DHT22;2617;51.006;12.436;2023-07-29T19:09:28;18.00;99.90
5196;DHT22;2617;51.006;12.436;2023-07-29T19:14:31;17.80;99.90
5196;DHT22;2617;51.006;12.436;2023-07-29T19:19:33;17.70;99.90
5196;DHT22;2617;51.006;12.436;2023-07-29T19:24:35;17.60;99.90
5196;DHT22;2617;51.006;12.436;2023-07-29T19:29:38;17.50;99.90
5196;DHT22;2617;51.006;12.436;2023-07-29T19:34:40;17.40;99.90
5196;DHT22;2617;51.006;12.436;2023-07-29T19:39:43;17.40;99.90
5196;DHT22;2617;51.006;12.436;2023-07-29T19:44:45;17.30;99.90
5196;DHT22;2617;51.006;12.436;2023-07-29T19:49:48;17.20;99.90
5196;DHT22;2617;51.006;12.436;2023-07-29T19:54:51;17.10;99.90
5196;DHT22;2617;51.006;12.436;2023-07-29T19:59:53;17.10;99.90
5196;DHT22;2617;51.006;12.436;2023-07-29T20:04:56;17.10;99.90
5196;DHT22;2617;51.006;12.436;2023-07-29T20:09:58;17.10;99.90
5196;DHT22;2617;51.006;12.436;2023-07-29T20:15:01;17.00;99.90
5196;DHT22;2617;51.006;12.436;2023-07-29T20:20:03;17.00;99.90
5196;DHT22;2617;51.006;12.436;2023-07-29T20:25:07;17.00;99.90
5196;DHT22;2617;51.006;12.436;2023-07-29T20:30:10;17.00;99.90
5196;DHT22;2617;51.006;12.436;2023-07-29T20:35:12;17.00;99.90
5196;DHT22;2617;51.006;12.436;2023-07-29T20:40:14;17.00;99.90
5196;DHT22;2617;51.006;12.436;2023-07-29T20:45:17;16.90;99.90
5196;DHT22;2617;51.006;12.436;2023-07-29T20:50:20;16.80;99.90
5196;DHT22;2617;51.006;12.436;2023-07-29T20:55:25;16.80;99.90
5196;DHT22;2617;51.006;12.436;2023-07-29T21:00:27;16.80;99.90
5196;DHT22;2617;51.006;12.436;2023-07-29T21:05:32;16.70;99.90
5196;DHT22;2617;51.006;12.436;2023-07-29T21:10:32;16.70;99.90
5196;DHT22;2617;51.006;12.436;2023-07-29T21:15:35;16.60;99.90
5196;DHT22;2617;51.006;12.436;2023-07-29T21:20:38;16.60;99.90
5196;DHT22;2617;51.006;12.436;2023-07-29T21:25:40;16.60;99.90
5196;DHT22;2617;51.006;12.436;2023-07-29T21:30:43;16.60;99.90
5196;DHT22;2617;51.006;12.436;2023-07-29T21:35:45;16.50;99.90
5196;DHT22;2617;51.006;12.436;2023-07-29T21:40:48;16.50;99.90
5196;DHT22;2617;51.006;12.436;2023-07-29T21:45:50;16.30;99.90
5196;DHT22;2617;51.006;12.436;2023-07-29T21:50:53;16.30;99.90
5196;DHT22;2617;51.006;12.436;2023-07-29T21:55:55;16.20;99.90
5196;DHT22;2617;51.006;12.436;2023-07-29T22:00:57;16.20;99.90
5196;DHT22;2617;51.006;12.436;2023-07-29T22:06:02;16.20;99.90
5196;DHT22;2617;51.006;12.436;2023-07-29T22:11:05;16.10;99.90
5196;DHT22;2617;51.006;12.436;2023-07-29T22:16:07;16.10;99.90
5196;DHT22;2617;51.006;12.436;2023-07-29T22:21:09;16.10;99.90
5196;DHT22;2617;51.006;12.436;2023-07-29T22:26:12;16.00;99.90
5196;DHT22;2617;51.006;12.436;2023-07-29T22:31:14;16.00;99.90
5196;DHT22;2617;51.006;12.436;2023-07-29T22:36:17;15.90;99.90
5196;DHT22;2617;51.006;12.436;2023-07-29T22:41:20;15.90;99.90
5196;DHT22;2617;51.006;12.436;2023-07-29T22:46:22;15.90;99.90
5196;DHT22;2617;51.006;12.436;2023-07-29T22:51:25;15.90;99.90
5196;DHT22;2617;51.006;12.436;2023-07-29T22:56:28;15.90;99.90
5196;DHT22;2617;51.006;12.436;2023-07-29T23:01:30;15.90;99.90
5196;DHT22;2617;51.006;12.436;2023-07-29T23:06:33;15.90;99.90
5196;DHT22;2617;51.006;12.436;2023-07-29T23:11:35;15.90;99.90
5196;DHT22;2617;51.006;12.436;2023-07-29T23:16:38;15.90;99.90
5196;DHT22;2617;51.006;12.436;2023-07-29T23:21:41;15.90;99.90
5196;DHT22;2617;51.006;12.436;2023-07-29T23:26:43;15.90;99.90
5196;DHT22;2617;51.006;12.436;2023-07-29T23:31:45;15.90;99.90
5196;DHT22;2617;51.006;12.436;2023-07-29T23:36:48;15.80;99.90
5196;DHT22;2617;51.006;12.436;2023-07-29T23:41:50;15.80;99.90
5196;DHT22;2617;51.006;12.436;2023-07-29T23:46:53;15.80;99.90
5196;DHT22;2617;51.006;12.436;2023-07-29T23:51:57;15.80;99.90
5196;DHT22;2617;51.006;12.436;2023-07-29T23:56:59;15.80;99.90
